sensor_id;sensor_type;location;lat;lon;timestamp;pressure;altitude;pressure_sealevel;temperature;humidity
57232;BME280;43488;46.934;8.276;2023-01-26T00:01:12;96904.84;;;-0.09;77.41
57232;BME280;43488;46.934;8.276;2023-01-26T00:03:40;96896.69;;;-0.04;77.59
57232;BME280;43488;46.934;8.276;2023-01-26T00:06:09;96896.69;;;-0.04;77.32
57232;BME280;43488;46.934;8.276;2023-01-26T00:08:39;96893.28;;;-0.05;77.34
57232;BME280;43488;46.934;8.276;2023-01-26T00:11:08;96887.97;;;-0.03;77.02
57232;BME280;43488;46.934;8.276;2023-01-26T00:13:35;96890.41;;;-0.02;77.13
57232;BME280;43488;46.934;8.276;2023-01-26T00:16:03;96879.09;;;-0.01;76.81
57232;BME280;43488;46.934;8.276;2023-01-26T00:18:30;96880.78;;;0.01;76.95
57232;BME280;43488;46.934;8.276;2023-01-26T00:20:59;96874.63;;;0.02;76.34
57232;BME280;43488;46.934;8.276;2023-01-26T00:23:31;96877.38;;;0.00;76.59
57232;BME280;43488;46.934;8.276;2023-01-26T00:25:59;96872.72;;;0.04;76.80
57232;BME280;43488;46.934;8.276;2023-01-26T00:28:29;96870.13;;;0.04;76.31
57232;BME280;43488;46.934;8.276;2023-01-26T00:31:07;96866.47;;;0.06;76.49
57232;BME280;43488;46.934;8.276;2023-01-26T00:33:35;96867.56;;;0.04;75.80
57232;BME280;43488;46.934;8.276;2023-01-26T00:36:03;96869.19;;;0.05;75.70
57232;BME280;43488;46.934;8.276;2023-01-26T00:38:30;96864.69;;;0.07;75.02
57232;BME280;43488;46.934;8.276;2023-01-26T00:40:58;96862.38;;;0.04;75.46
57232;BME280;43488;46.934;8.276;2023-01-26T00:43:25;96862.66;;;0.01;75.80
57232;BME280;43488;46.934;8.276;2023-01-26T00:45:52;96859.09;;;0.02;76.18
57232;BME280;43488;46.934;8.276;2023-01-26T00:48:20;96853.50;;;-0.04;75.99
57232;BME280;43488;46.934;8.276;2023-01-26T00:50:49;96853.63;;;-0.05;76.00
57232;BME280;43488;46.934;8.276;2023-01-26T00:53:17;96844.22;;;-0.06;76.06
57232;BME280;43488;46.934;8.276;2023-01-26T00:55:44;96846.97;;;-0.08;76.71
57232;BME280;43488;46.934;8.276;2023-01-26T00:58:11;96848.72;;;-0.08;76.47
57232;BME280;43488;46.934;8.276;2023-01-26T01:00:38;96844.63;;;-0.11;76.51
57232;BME280;43488;46.934;8.276;2023-01-26T01:03:05;96840.25;;;-0.10;76.66
57232;BME280;43488;46.934;8.276;2023-01-26T01:05:33;96842.69;;;-0.18;76.80
57232;BME280;43488;46.934;8.276;2023-01-26T01:08:00;96840.09;;;-0.18;76.95
57232;BME280;43488;46.934;8.276;2023-01-26T01:10:28;96849.63;;;-0.19;77.82
57232;BME280;43488;46.934;8.276;2023-01-26T01:12:55;96847.88;;;-0.18;77.83
57232;BME280;43488;46.934;8.276;2023-01-26T01:15:23;96847.19;;;-0.20;77.22
57232;BME280;43488;46.934;8.276;2023-01-26T01:17:50;96850.88;;;-0.23;74.89
57232;BME280;43488;46.934;8.276;2023-01-26T01:20:17;96851.25;;;-0.28;74.18
57232;BME280;43488;46.934;8.276;2023-01-26T01:22:44;96844.84;;;-0.33;74.53
57232;BME280;43488;46.934;8.276;2023-01-26T01:25:11;96853.28;;;-0.31;74.76
57232;BME280;43488;46.934;8.276;2023-01-26T01:27:38;96855.88;;;-0.31;74.48
57232;BME280;43488;46.934;8.276;2023-01-26T01:30:06;96859.00;;;-0.28;74.84
57232;BME280;43488;46.934;8.276;2023-01-26T01:32:36;96850.41;;;-0.28;75.06
57232;BME280;43488;46.934;8.276;2023-01-26T01:35:05;96854.41;;;-0.24;74.25
57232;BME280;43488;46.934;8.276;2023-01-26T01:37:33;96850.88;;;-0.23;74.44
57232;BME280;43488;46.934;8.276;2023-01-26T01:40:00;96852.78;;;-0.25;74.10
57232;BME280;43488;46.934;8.276;2023-01-26T01:42:29;96846.47;;;-0.32;72.93
57232;BME280;43488;46.934;8.276;2023-01-26T01:48:01;96855.47;;;-0.36;71.85
57232;BME280;43488;46.934;8.276;2023-01-26T01:50:32;96843.22;;;-0.34;71.67
57232;BME280;43488;46.934;8.276;2023-01-26T01:53:01;96847.44;;;-0.33;72.99
57232;BME280;43488;46.934;8.276;2023-01-26T01:55:28;96837.75;;;-0.31;72.77
57232;BME280;43488;46.934;8.276;2023-01-26T01:57:57;96846.19;;;-0.29;73.76
57232;BME280;43488;46.934;8.276;2023-01-26T02:00:27;96846.19;;;-0.29;73.58
57232;BME280;43488;46.934;8.276;2023-01-26T02:03:00;96846.47;;;-0.32;73.83
57232;BME280;43488;46.934;8.276;2023-01-26T02:05:49;96843.75;;;-0.31;74.09
57232;BME280;43488;46.934;8.276;2023-01-26T02:08:18;96843.47;;;-0.28;73.97
57232;BME280;43488;46.934;8.276;2023-01-26T02:10:48;96839.25;;;-0.29;74.28
57232;BME280;43488;46.934;8.276;2023-01-26T02:13:17;96847.84;;;-0.28;74.77
57232;BME280;43488;46.934;8.276;2023-01-26T02:15:44;96845.13;;;-0.26;75.04
57232;BME280;43488;46.934;8.276;2023-01-26T02:18:12;96836.28;;;-0.24;75.46
57232;BME280;43488;46.934;8.276;2023-01-26T02:20:44;96833.69;;;-0.24;76.11
57232;BME280;43488;46.934;8.276;2023-01-26T02:23:23;96832.75;;;-0.23;76.54
57232;BME280;43488;46.934;8.276;2023-01-26T02:28:22;96817.75;;;-0.19;76.51
57232;BME280;43488;46.934;8.276;2023-01-26T02:30:52;96823.50;;;-0.25;77.17
57232;BME280;43488;46.934;8.276;2023-01-26T02:33:22;96822.41;;;-0.23;77.27
57232;BME280;43488;46.934;8.276;2023-01-26T02:35:49;96818.44;;;-0.27;77.75
57232;BME280;43488;46.934;8.276;2023-01-26T02:38:18;96811.38;;;-0.25;77.42
57232;BME280;43488;46.934;8.276;2023-01-26T02:43:12;96817.59;;;-0.28;77.05
57232;BME280;43488;46.934;8.276;2023-01-26T02:45:39;96804.81;;;-0.29;77.07
57232;BME280;43488;46.934;8.276;2023-01-26T02:48:07;96808.09;;;-0.27;76.83
57232;BME280;43488;46.934;8.276;2023-01-26T02:50:34;96799.50;;;-0.28;76.96
57232;BME280;43488;46.934;8.276;2023-01-26T02:53:02;96805.63;;;-0.29;77.45
57232;BME280;43488;46.934;8.276;2023-01-26T02:55:30;96801.53;;;-0.31;77.12
57232;BME280;43488;46.934;8.276;2023-01-26T02:57:59;96798.94;;;-0.31;76.05
57232;BME280;43488;46.934;8.276;2023-01-26T03:00:32;96793.78;;;-0.31;75.89
57232;BME280;43488;46.934;8.276;2023-01-26T03:03:16;96788.47;;;-0.30;76.00
57232;BME280;43488;46.934;8.276;2023-01-26T03:05:45;96788.31;;;-0.28;76.04
57232;BME280;43488;46.934;8.276;2023-01-26T03:08:13;96789.28;;;-0.29;75.77
57232;BME280;43488;46.934;8.276;2023-01-26T03:10:40;96780.69;;;-0.30;76.37
57232;BME280;43488;46.934;8.276;2023-01-26T03:13:08;96771.16;;;-0.29;75.68
57232;BME280;43488;46.934;8.276;2023-01-26T03:15:36;96774.84;;;-0.32;75.57
57232;BME280;43488;46.934;8.276;2023-01-26T03:18:14;96773.22;;;-0.33;75.34
57232;BME280;43488;46.934;8.276;2023-01-26T03:21:02;96774.31;;;-0.35;75.34
57232;BME280;43488;46.934;8.276;2023-01-26T03:23:47;96768.56;;;-0.39;74.94
57232;BME280;43488;46.934;8.276;2023-01-26T03:26:33;96771.84;;;-0.37;75.21
57232;BME280;43488;46.934;8.276;2023-01-26T03:29:19;96759.75;;;-0.36;74.84
57232;BME280;43488;46.934;8.276;2023-01-26T03:31:47;96750.72;;;-0.42;74.90
57232;BME280;43488;46.934;8.276;2023-01-26T03:34:14;96764.47;;;-0.41;74.49
57232;BME280;43488;46.934;8.276;2023-01-26T03:36:42;96765.16;;;-0.39;74.26
57232;BME280;43488;46.934;8.276;2023-01-26T03:39:09;96769.25;;;-0.37;74.86
57232;BME280;43488;46.934;8.276;2023-01-26T03:41:36;96769.13;;;-0.35;74.18
57232;BME280;43488;46.934;8.276;2023-01-26T03:44:21;96765.16;;;-0.39;74.30
57232;BME280;43488;46.934;8.276;2023-01-26T03:47:06;96762.56;;;-0.39;74.90
57232;BME280;43488;46.934;8.276;2023-01-26T03:49:52;96769.53;;;-0.40;74.76
57232;BME280;43488;46.934;8.276;2023-01-26T03:52:41;96760.13;;;-0.41;75.06
57232;BME280;43488;46.934;8.276;2023-01-26T03:55:26;96757.69;;;-0.42;74.74
57232;BME280;43488;46.934;8.276;2023-01-26T03:58:12;96753.31;;;-0.42;75.45
57232;BME280;43488;46.934;8.276;2023-01-26T04:00:39;96745.44;;;-0.40;75.31
57232;BME280;43488;46.934;8.276;2023-01-26T04:03:07;96757.41;;;-0.39;75.29
57232;BME280;43488;46.934;8.276;2023-01-26T04:05:57;96748.69;;;-0.38;74.94
57232;BME280;43488;46.934;8.276;2023-01-26T04:08:43;96752.81;;;-0.36;74.53
57232;BME280;43488;46.934;8.276;2023-01-26T04:11:12;96749.41;;;-0.36;74.64
57232;BME280;43488;46.934;8.276;2023-01-26T04:13:39;96749.41;;;-0.36;75.31
57232;BME280;43488;46.934;8.276;2023-01-26T04:16:25;96744.22;;;-0.36;74.98
57232;BME280;43488;46.934;8.276;2023-01-26T04:19:11;96741.75;;;-0.38;75.15
57232;BME280;43488;46.934;8.276;2023-01-26T04:22:00;96733.16;;;-0.38;75.51
57232;BME280;43488;46.934;8.276;2023-01-26T04:24:27;96727.75;;;-0.35;75.92
57232;BME280;43488;46.934;8.276;2023-01-26T04:26:54;96729.50;;;-0.36;75.82
57232;BME280;43488;46.934;8.276;2023-01-26T04:29:21;96719.28;;;-0.37;75.93
57232;BME280;43488;46.934;8.276;2023-01-26T04:31:49;96738.47;;;-0.40;76.01
57232;BME280;43488;46.934;8.276;2023-01-26T04:34:16;96729.22;;;-0.42;75.94
57232;BME280;43488;46.934;8.276;2023-01-26T04:36:43;96719.03;;;-0.44;76.11
57232;BME280;43488;46.934;8.276;2023-01-26T04:39:10;96716.28;;;-0.42;75.49
57232;BME280;43488;46.934;8.276;2023-01-26T04:41:38;96710.03;;;-0.40;76.24
57232;BME280;43488;46.934;8.276;2023-01-26T04:44:05;96715.34;;;-0.41;75.30
57232;BME280;43488;46.934;8.276;2023-01-26T04:46:34;96710.44;;;-0.44;74.96
57232;BME280;43488;46.934;8.276;2023-01-26T04:49:01;96706.75;;;-0.42;75.17
57232;BME280;43488;46.934;8.276;2023-01-26T04:51:28;96700.09;;;-0.44;75.41
57232;BME280;43488;46.934;8.276;2023-01-26T04:53:55;96697.50;;;-0.44;75.23
57232;BME280;43488;46.934;8.276;2023-01-26T04:58:51;96687.97;;;-0.44;74.59
57232;BME280;43488;46.934;8.276;2023-01-26T05:01:18;96687.16;;;-0.44;74.46
57232;BME280;43488;46.934;8.276;2023-01-26T05:03:46;96692.06;;;-0.41;74.67
57232;BME280;43488;46.934;8.276;2023-01-26T05:06:13;96695.03;;;-0.46;74.34
57232;BME280;43488;46.934;8.276;2023-01-26T05:08:40;96694.22;;;-0.46;74.56
57232;BME280;43488;46.934;8.276;2023-01-26T05:11:07;96689.75;;;-0.44;74.33
57232;BME280;43488;46.934;8.276;2023-01-26T05:13:34;96685.53;;;-0.45;74.07
57232;BME280;43488;46.934;8.276;2023-01-26T05:16:04;96689.03;;;-0.46;73.99
57232;BME280;43488;46.934;8.276;2023-01-26T05:18:32;96690.00;;;-0.47;74.26
57232;BME280;43488;46.934;8.276;2023-01-26T05:21:00;96690.81;;;-0.47;74.58
57232;BME280;43488;46.934;8.276;2023-01-26T05:23:26;96691.38;;;-0.43;75.27
57232;BME280;43488;46.934;8.276;2023-01-26T05:25:53;96685.25;;;-0.42;74.88
57232;BME280;43488;46.934;8.276;2023-01-26T05:28:22;96690.44;;;-0.42;74.85
57232;BME280;43488;46.934;8.276;2023-01-26T05:30:49;96682.00;;;-0.44;74.47
57232;BME280;43488;46.934;8.276;2023-01-26T05:33:16;96683.19;;;-0.48;75.38
57232;BME280;43488;46.934;8.276;2023-01-26T05:35:48;96688.22;;;-0.47;75.72
57232;BME280;43488;46.934;8.276;2023-01-26T05:38:15;96682.78;;;-0.53;75.60
57232;BME280;43488;46.934;8.276;2023-01-26T05:40:42;96686.75;;;-0.49;75.37
57232;BME280;43488;46.934;8.276;2023-01-26T05:43:09;96686.75;;;-0.49;75.30
57232;BME280;43488;46.934;8.276;2023-01-26T05:45:38;96684.97;;;-0.49;75.32
57232;BME280;43488;46.934;8.276;2023-01-26T05:48:05;96688.38;;;-0.48;75.36
57232;BME280;43488;46.934;8.276;2023-01-26T05:50:33;96689.03;;;-0.46;75.05
57232;BME280;43488;46.934;8.276;2023-01-26T05:53:00;96690.72;;;-0.45;75.12
57232;BME280;43488;46.934;8.276;2023-01-26T05:55:28;96689.75;;;-0.44;74.99
57232;BME280;43488;46.934;8.276;2023-01-26T05:57:55;96689.75;;;-0.44;75.27
57232;BME280;43488;46.934;8.276;2023-01-26T06:00:23;96683.63;;;-0.43;75.17
57232;BME280;43488;46.934;8.276;2023-01-26T06:02:50;96687.84;;;-0.42;75.13
57232;BME280;43488;46.934;8.276;2023-01-26T06:05:18;96686.06;;;-0.42;75.12
57232;BME280;43488;46.934;8.276;2023-01-26T06:07:45;96684.97;;;-0.39;75.85
57232;BME280;43488;46.934;8.276;2023-01-26T06:10:13;96673.00;;;-0.40;74.95
57232;BME280;43488;46.934;8.276;2023-01-26T06:12:40;96677.22;;;-0.39;75.50
57232;BME280;43488;46.934;8.276;2023-01-26T06:15:09;96675.31;;;-0.37;75.31
57232;BME280;43488;46.934;8.276;2023-01-26T06:17:36;96684.72;;;-0.36;75.54
57232;BME280;43488;46.934;8.276;2023-01-26T06:20:05;96682.81;;;-0.34;75.73
57232;BME280;43488;46.934;8.276;2023-01-26T06:22:32;96677.06;;;-0.38;73.27
57232;BME280;43488;46.934;8.276;2023-01-26T06:24:59;96678.44;;;-0.43;72.33
57232;BME280;43488;46.934;8.276;2023-01-26T06:27:26;96681.84;;;-0.43;72.01
57232;BME280;43488;46.934;8.276;2023-01-26T06:29:52;96674.22;;;-0.44;71.86
57232;BME280;43488;46.934;8.276;2023-01-26T06:32:19;96679.41;;;-0.44;71.34
57232;BME280;43488;46.934;8.276;2023-01-26T06:34:46;96681.03;;;-0.43;71.51
57232;BME280;43488;46.934;8.276;2023-01-26T06:37:13;96678.69;;;-0.46;71.55
57232;BME280;43488;46.934;8.276;2023-01-26T06:39:41;96685.53;;;-0.45;72.28
57232;BME280;43488;46.934;8.276;2023-01-26T06:42:08;96675.19;;;-0.45;72.65
57232;BME280;43488;46.934;8.276;2023-01-26T06:44:35;96682.53;;;-0.41;72.91
57232;BME280;43488;46.934;8.276;2023-01-26T06:47:04;96684.16;;;-0.40;72.97
57232;BME280;43488;46.934;8.276;2023-01-26T06:49:31;96684.28;;;-0.41;72.33
57232;BME280;43488;46.934;8.276;2023-01-26T06:52:03;96681.56;;;-0.40;72.67
57232;BME280;43488;46.934;8.276;2023-01-26T06:54:31;96682.38;;;-0.39;72.65
57232;BME280;43488;46.934;8.276;2023-01-26T06:56:59;96690.28;;;-0.41;72.43
57232;BME280;43488;46.934;8.276;2023-01-26T06:59:26;96685.13;;;-0.41;71.90
57232;BME280;43488;46.934;8.276;2023-01-26T07:01:53;96687.56;;;-0.39;72.44
57232;BME280;43488;46.934;8.276;2023-01-26T07:04:21;96685.13;;;-0.41;71.78
57232;BME280;43488;46.934;8.276;2023-01-26T07:06:51;96681.44;;;-0.38;72.14
57232;BME280;43488;46.934;8.276;2023-01-26T07:09:18;96687.31;;;-0.36;72.01
57232;BME280;43488;46.934;8.276;2023-01-26T07:11:45;96684.72;;;-0.36;72.85
57232;BME280;43488;46.934;8.276;2023-01-26T07:14:13;96684.84;;;-0.38;72.96
57232;BME280;43488;46.934;8.276;2023-01-26T07:16:40;96681.72;;;-0.41;72.98
57232;BME280;43488;46.934;8.276;2023-01-26T07:19:08;96685.66;;;-0.37;72.75
57232;BME280;43488;46.934;8.276;2023-01-26T07:21:35;96684.44;;;-0.33;73.52
57232;BME280;43488;46.934;8.276;2023-01-26T07:24:05;96695.59;;;-0.33;73.05
57232;BME280;43488;46.934;8.276;2023-01-26T07:26:33;96685.94;;;-0.31;73.15
57232;BME280;43488;46.934;8.276;2023-01-26T07:29:00;96692.88;;;-0.31;72.75
57232;BME280;43488;46.934;8.276;2023-01-26T07:31:27;96686.06;;;-0.32;72.63
57232;BME280;43488;46.934;8.276;2023-01-26T07:33:55;96682.38;;;-0.30;72.62
57232;BME280;43488;46.934;8.276;2023-01-26T07:36:22;96681.56;;;-0.30;72.20
57232;BME280;43488;46.934;8.276;2023-01-26T07:38:49;96678.19;;;-0.31;72.41
57232;BME280;43488;46.934;8.276;2023-01-26T07:41:16;96683.34;;;-0.31;72.59
57232;BME280;43488;46.934;8.276;2023-01-26T07:43:43;96672.84;;;-0.29;71.99
57232;BME280;43488;46.934;8.276;2023-01-26T07:46:10;96678.03;;;-0.29;72.83
57232;BME280;43488;46.934;8.276;2023-01-26T07:48:37;96677.88;;;-0.28;72.84
57232;BME280;43488;46.934;8.276;2023-01-26T07:51:05;96669.31;;;-0.28;72.64
57232;BME280;43488;46.934;8.276;2023-01-26T07:53:35;96676.25;;;-0.29;73.02
57232;BME280;43488;46.934;8.276;2023-01-26T07:56:13;96671.78;;;-0.26;72.66
57232;BME280;43488;46.934;8.276;2023-01-26T07:58:41;96675.19;;;-0.26;73.37
57232;BME280;43488;46.934;8.276;2023-01-26T08:01:10;96670.41;;;-0.31;73.12
57232;BME280;43488;46.934;8.276;2023-01-26T08:03:39;96661.69;;;-0.30;73.62
57232;BME280;43488;46.934;8.276;2023-01-26T08:06:07;96669.22;;;-0.26;73.08
57232;BME280;43488;46.934;8.276;2023-01-26T08:08:35;96669.06;;;-0.25;73.30
57232;BME280;43488;46.934;8.276;2023-01-26T08:11:02;96672.47;;;-0.24;73.29
57232;BME280;43488;46.934;8.276;2023-01-26T08:13:30;96670.28;;;-0.19;73.31
57232;BME280;43488;46.934;8.276;2023-01-26T08:16:05;96667.44;;;-0.16;73.21
57232;BME280;43488;46.934;8.276;2023-01-26T08:18:34;96676.53;;;-0.12;72.52
57232;BME280;43488;46.934;8.276;2023-01-26T08:21:02;96674.09;;;-0.14;72.14
57232;BME280;43488;46.934;8.276;2023-01-26T08:23:29;96672.47;;;-0.15;72.09
57232;BME280;43488;46.934;8.276;2023-01-26T08:26:07;96672.47;;;-0.15;72.16
57232;BME280;43488;46.934;8.276;2023-01-26T08:28:35;96675.19;;;-0.16;72.21
57232;BME280;43488;46.934;8.276;2023-01-26T08:31:13;96673.44;;;-0.16;72.41
57232;BME280;43488;46.934;8.276;2023-01-26T08:33:41;96675.34;;;-0.18;72.73
57232;BME280;43488;46.934;8.276;2023-01-26T08:36:11;96672.59;;;-0.16;72.53
57232;BME280;43488;46.934;8.276;2023-01-26T08:38:38;96675.19;;;-0.16;73.05
57232;BME280;43488;46.934;8.276;2023-01-26T08:41:05;96673.13;;;-0.13;72.45
57232;BME280;43488;46.934;8.276;2023-01-26T08:43:33;96674.09;;;-0.14;72.30
57232;BME280;43488;46.934;8.276;2023-01-26T08:46:01;96666.34;;;-0.14;71.98
57232;BME280;43488;46.934;8.276;2023-01-26T08:48:28;96675.72;;;-0.13;71.85
57232;BME280;43488;46.934;8.276;2023-01-26T08:50:59;96675.34;;;-0.08;71.53
57232;BME280;43488;46.934;8.276;2023-01-26T08:53:32;96669.59;;;-0.12;71.88
57232;BME280;43488;46.934;8.276;2023-01-26T08:56:01;96673.00;;;-0.11;71.21
57232;BME280;43488;46.934;8.276;2023-01-26T08:58:29;96678.44;;;-0.05;72.06
57232;BME280;43488;46.934;8.276;2023-01-26T09:00:56;96673.56;;;0.02;72.22
57232;BME280;43488;46.934;8.276;2023-01-26T09:03:23;96671.09;;;0.01;70.85
57232;BME280;43488;46.934;8.276;2023-01-26T09:05:50;96679.53;;;0.03;71.43
57232;BME280;43488;46.934;8.276;2023-01-26T09:08:17;96674.38;;;0.03;71.02
57232;BME280;43488;46.934;8.276;2023-01-26T09:10:44;96668.53;;;0.01;70.60
57232;BME280;43488;46.934;8.276;2023-01-26T09:13:11;96666.59;;;0.03;70.71
57232;BME280;43488;46.934;8.276;2023-01-26T09:15:38;96667.13;;;0.06;71.11
57232;BME280;43488;46.934;8.276;2023-01-26T09:18:05;96664.53;;;0.06;71.03
57232;BME280;43488;46.934;8.276;2023-01-26T09:20:32;96669.56;;;0.08;71.32
57232;BME280;43488;46.934;8.276;2023-01-26T09:23:00;96671.09;;;0.10;73.03
57232;BME280;43488;46.934;8.276;2023-01-26T09:25:27;96659.09;;;0.19;72.08
57232;BME280;43488;46.934;8.276;2023-01-26T09:27:54;96662.91;;;0.15;71.44
57232;BME280;43488;46.934;8.276;2023-01-26T09:30:22;96670.38;;;0.18;71.06
57232;BME280;43488;46.934;8.276;2023-01-26T09:32:50;96671.75;;;0.22;71.05
57232;BME280;43488;46.934;8.276;2023-01-26T09:35:17;96670.13;;;0.21;70.73
57232;BME280;43488;46.934;8.276;2023-01-26T09:37:45;96663.47;;;0.18;70.92
57232;BME280;43488;46.934;8.276;2023-01-26T09:43:15;96671.75;;;0.22;70.54
57232;BME280;43488;46.934;8.276;2023-01-26T09:48:47;96681.28;;;0.21;71.14
57232;BME280;43488;46.934;8.276;2023-01-26T09:51:27;96681.69;;;0.17;71.18
57232;BME280;43488;46.934;8.276;2023-01-26T09:56:50;96681.59;;;0.18;71.33
57232;BME280;43488;46.934;8.276;2023-01-26T09:59:38;96686.06;;;0.16;72.06
57232;BME280;43488;46.934;8.276;2023-01-26T10:05:29;96683.34;;;0.27;72.50
57232;BME280;43488;46.934;8.276;2023-01-26T10:07:53;96679.09;;;0.26;72.25
57232;BME280;43488;46.934;8.276;2023-01-26T10:10:25;96682.63;;;0.25;72.63
57232;BME280;43488;46.934;8.276;2023-01-26T10:12:54;96673.53;;;0.21;72.63
57232;BME280;43488;46.934;8.276;2023-01-26T10:15:34;96670.13;;;0.21;72.96
57232;BME280;43488;46.934;8.276;2023-01-26T10:18:25;96675.16;;;0.22;73.41
57232;BME280;43488;46.934;8.276;2023-01-26T10:20:56;96664.78;;;0.22;73.00
57232;BME280;43488;46.934;8.276;2023-01-26T10:23:33;96664.28;;;0.19;73.17
57232;BME280;43488;46.934;8.276;2023-01-26T10:26:14;96664.53;;;0.16;72.66
57232;BME280;43488;46.934;8.276;2023-01-26T10:28:43;96660.16;;;0.16;73.10
57232;BME280;43488;46.934;8.276;2023-01-26T10:31:19;96661.69;;;0.19;74.08
57232;BME280;43488;46.934;8.276;2023-01-26T10:33:50;96663.03;;;0.23;72.89
57232;BME280;43488;46.934;8.276;2023-01-26T10:36:18;96660.72;;;0.20;72.46
57232;BME280;43488;46.934;8.276;2023-01-26T10:38:46;96669.44;;;0.19;72.89
57232;BME280;43488;46.934;8.276;2023-01-26T10:43:54;96663.31;;;0.20;73.37
57232;BME280;43488;46.934;8.276;2023-01-26T10:46:23;96666.56;;;0.22;73.72
57232;BME280;43488;46.934;8.276;2023-01-26T10:48:51;96666.44;;;0.23;74.00
57232;BME280;43488;46.934;8.276;2023-01-26T10:51:29;96660.44;;;0.23;73.50
57232;BME280;43488;46.934;8.276;2023-01-26T10:57:01;96661.66;;;0.28;73.57
57232;BME280;43488;46.934;8.276;2023-01-26T11:02:52;96655.22;;;0.33;73.84
57232;BME280;43488;46.934;8.276;2023-01-26T11:05:22;96651.41;;;0.37;73.34
57232;BME280;43488;46.934;8.276;2023-01-26T11:07:54;96648.94;;;0.35;73.20
57232;BME280;43488;46.934;8.276;2023-01-26T11:10:29;96646.75;;;0.40;73.88
57232;BME280;43488;46.934;8.276;2023-01-26T11:13:17;96650.31;;;0.39;72.91
57232;BME280;43488;46.934;8.276;2023-01-26T11:19:01;96646.75;;;0.40;73.26
57232;BME280;43488;46.934;8.276;2023-01-26T11:22:07;96647.44;;;0.42;73.11
57232;BME280;43488;46.934;8.276;2023-01-26T11:34:48;96631.75;;;0.44;72.78
57232;BME280;43488;46.934;8.276;2023-01-26T11:37:31;96623.47;;;0.40;72.11
57232;BME280;43488;46.934;8.276;2023-01-26T11:42:57;96620.06;;;0.40;72.42
57232;BME280;43488;46.934;8.276;2023-01-26T11:45:36;96623.16;;;0.43;73.29
57232;BME280;43488;46.934;8.276;2023-01-26T11:48:26;96623.28;;;0.51;72.99
57232;BME280;43488;46.934;8.276;2023-01-26T12:02:14;96615.50;;;0.51;71.04
57232;BME280;43488;46.934;8.276;2023-01-26T12:04:47;96608.69;;;0.50;71.10
57232;BME280;43488;46.934;8.276;2023-01-26T12:07:23;96602.25;;;0.54;71.62
57232;BME280;43488;46.934;8.276;2023-01-26T12:09:53;96593.69;;;0.54;71.87
57232;BME280;43488;46.934;8.276;2023-01-26T12:15:23;96604.28;;;0.61;71.65
57232;BME280;43488;46.934;8.276;2023-01-26T12:20:23;96608.81;;;0.59;71.06
57232;BME280;43488;46.934;8.276;2023-01-26T12:22:57;96604.84;;;0.64;72.28
57232;BME280;43488;46.934;8.276;2023-01-26T12:25:37;96604.69;;;0.66;70.20
57232;BME280;43488;46.934;8.276;2023-01-26T12:28:28;96593.50;;;0.65;69.66
57232;BME280;43488;46.934;8.276;2023-01-26T12:31:05;96588.19;;;0.67;69.35
57232;BME280;43488;46.934;8.276;2023-01-26T12:33:35;96593.38;;;0.67;69.62
57232;BME280;43488;46.934;8.276;2023-01-26T12:41:43;96586.91;;;0.71;70.58
57232;BME280;43488;46.934;8.276;2023-01-26T12:44:45;96587.88;;;0.70;70.29
57232;BME280;43488;46.934;8.276;2023-01-26T12:47:28;96585.00;;;0.73;70.50
57232;BME280;43488;46.934;8.276;2023-01-26T12:55:24;96568.63;;;0.72;70.51
57232;BME280;43488;46.934;8.276;2023-01-26T12:58:01;96572.34;;;0.70;70.32
57232;BME280;43488;46.934;8.276;2023-01-26T13:00:34;96558.56;;;0.69;71.13
57232;BME280;43488;46.934;8.276;2023-01-26T13:03:15;96559.38;;;0.70;71.11
57232;BME280;43488;46.934;8.276;2023-01-26T13:11:05;96567.56;;;0.75;71.58
57232;BME280;43488;46.934;8.276;2023-01-26T13:13:55;96556.38;;;0.74;71.68
57232;BME280;43488;46.934;8.276;2023-01-26T13:18:56;96561.56;;;0.74;72.08
57232;BME280;43488;46.934;8.276;2023-01-26T13:25:17;96561.41;;;0.76;72.64
57232;BME280;43488;46.934;8.276;2023-01-26T13:29:57;96554.28;;;0.78;72.46
57232;BME280;43488;46.934;8.276;2023-01-26T13:34:55;96552.50;;;0.78;72.94
57232;BME280;43488;46.934;8.276;2023-01-26T13:40:30;96548.28;;;0.77;72.63
57232;BME280;43488;46.934;8.276;2023-01-26T13:48:50;96554.81;;;0.81;72.57
57232;BME280;43488;46.934;8.276;2023-01-26T13:51:20;96553.31;;;0.79;72.64
57232;BME280;43488;46.934;8.276;2023-01-26T13:56:25;96543.63;;;0.81;72.11
57232;BME280;43488;46.934;8.276;2023-01-26T13:58:52;96553.31;;;0.79;71.56
57232;BME280;43488;46.934;8.276;2023-01-26T14:01:20;96559.06;;;0.82;71.08
57232;BME280;43488;46.934;8.276;2023-01-26T14:03:47;96552.22;;;0.81;71.13
57232;BME280;43488;46.934;8.276;2023-01-26T14:06:18;96542.53;;;0.83;72.06
57232;BME280;43488;46.934;8.276;2023-01-26T14:08:55;96538.75;;;0.78;72.42
57232;BME280;43488;46.934;8.276;2023-01-26T14:11:24;96530.16;;;0.77;71.37
57232;BME280;43488;46.934;8.276;2023-01-26T14:13:53;96538.34;;;0.73;71.54
57232;BME280;43488;46.934;8.276;2023-01-26T14:16:26;96533.88;;;0.75;71.87
57232;BME280;43488;46.934;8.276;2023-01-26T14:19:17;96528.84;;;0.73;74.16
57232;BME280;43488;46.934;8.276;2023-01-26T14:21:50;96537.13;;;0.77;74.47
57232;BME280;43488;46.934;8.276;2023-01-26T14:24:30;96533.31;;;0.71;74.35
57232;BME280;43488;46.934;8.276;2023-01-26T14:26:58;96543.41;;;0.74;74.45
57232;BME280;43488;46.934;8.276;2023-01-26T14:29:27;96529.91;;;0.71;73.73
57232;BME280;43488;46.934;8.276;2023-01-26T14:31:55;96539.19;;;0.73;73.63
57232;BME280;43488;46.934;8.276;2023-01-26T14:34:28;96536.44;;;0.75;73.86
57232;BME280;43488;46.934;8.276;2023-01-26T14:37:14;96536.31;;;0.76;73.77
57232;BME280;43488;46.934;8.276;2023-01-26T14:39:43;96541.50;;;0.76;73.47
57232;BME280;43488;46.934;8.276;2023-01-26T14:42:15;96542.16;;;0.78;73.46
57232;BME280;43488;46.934;8.276;2023-01-26T14:44:44;96547.03;;;0.81;73.51
57232;BME280;43488;46.934;8.276;2023-01-26T14:47:13;96540.38;;;0.79;72.84
57232;BME280;43488;46.934;8.276;2023-01-26T14:50:00;96545.41;;;0.80;72.25
57232;BME280;43488;46.934;8.276;2023-01-26T14:52:30;96541.03;;;0.81;72.31
57232;BME280;43488;46.934;8.276;2023-01-26T14:55:27;96539.41;;;0.80;73.28
57232;BME280;43488;46.934;8.276;2023-01-26T14:57:55;96546.66;;;0.76;72.51
57232;BME280;43488;46.934;8.276;2023-01-26T15:00:31;96553.63;;;0.76;72.19
57232;BME280;43488;46.934;8.276;2023-01-26T15:03:11;96546.13;;;0.73;72.02
57232;BME280;43488;46.934;8.276;2023-01-26T15:05:40;96535.91;;;0.71;71.47
57232;BME280;43488;46.934;8.276;2023-01-26T15:08:18;96547.38;;;0.69;71.65